Aviation Digital Data Service (ADDS)

Output produced by METARs form (2300 UTC 23 March 2019)
found at http://www.aviationweather.gov/metar/data/
 
Forecast for: HLKF (KUFRA (MIL/CIV) , LY)
Text: TAF HLKF 232300Z 2400/2424 34012KT 8000 NSC
Forecast period: 0000 UTC 24 March 2019 to 0000 UTC 25 March 2019
Forecast type: FROM: standard forecast or significant change
Winds: from the NNW (340 degrees) at 14 MPH (12 knots; 6.2 m/s)
Visibility: 5 miles (8 km)
Ceiling: unknown
Clouds: missing
Weather: no significant weather forecast for this period